Time;durP1;ratioP1;P1;durP2;ratioP2;P2;SDS_P1;SDS_P2;PMS_P1;PMS_P2;Temp;Humidity;BMP_temperature;BMP_pressure;BME280_temperature;BME280_humidity;BME280_pressure;Samples;Min_cycle;Max_cycle;Signal;HPM_P1;HPM_P2
2022/12/14 00:00:42;;;;;;;40.67;27.70;;;2.00;99.90;;;;;;5014780;28;20026;-85
2022/12/14 00:03:09;;;;;;;48.37;30.83;;;1.90;99.90;;;;;;5014982;28;20041;-85
2022/12/14 00:05:35;;;;;;;28.10;22.17;;;1.90;99.90;;;;;;5015805;28;20042;-83
2022/12/14 00:08:01;;;;;;;42.33;27.67;;;1.80;99.90;;;;;;5015147;28;20483;-83
2022/12/14 00:10:27;;;;;;;41.37;28.13;;;1.80;99.90;;;;;;5016213;28;20037;-84
2022/12/14 00:12:53;;;;;;;31.07;24.07;;;1.90;99.90;;;;;;5014847;28;20037;-84
2022/12/14 00:15:19;;;;;;;44.27;28.93;;;1.90;99.90;;;;;;5014393;28;20047;-83
2022/12/14 00:17:45;;;;;;;37.43;26.77;;;1.90;99.90;;;;;;5016002;28;20021;-83
2022/12/14 00:20:11;;;;;;;40.20;28.20;;;1.90;99.90;;;;;;5004337;28;20053;-83
2022/12/14 00:22:37;;;;;;;19.13;17.13;;;2.00;99.90;;;;;;4996268;28;20029;-83
2022/12/14 00:25:04;;;;;;;38.97;26.43;;;1.90;99.90;;;;;;5027775;28;20042;-84
2022/12/14 00:27:30;;;;;;;36.17;27.00;;;2.00;99.90;;;;;;5028133;28;20401;-83
2022/12/14 00:29:56;;;;;;;34.30;24.73;;;2.00;99.90;;;;;;4996528;28;20041;-83
2022/12/14 00:32:22;;;;;;;26.97;21.97;;;2.00;99.90;;;;;;4995744;28;20081;-83
2022/12/14 00:34:48;;;;;;;33.57;28.43;;;2.00;99.90;;;;;;4994472;28;20038;-83
2022/12/14 00:37:14;;;;;;;33.77;24.07;;;2.00;99.90;;;;;;4997365;28;20501;-83
2022/12/14 00:39:40;;;;;;;35.33;29.97;;;2.10;99.90;;;;;;4996013;28;20029;-83
2022/12/14 00:42:07;;;;;;;32.13;25.00;;;2.10;99.90;;;;;;4995997;28;20395;-84
2022/12/14 00:44:33;;;;;;;29.90;26.53;;;2.10;99.90;;;;;;4996154;28;20045;-84
2022/12/14 00:46:59;;;;;;;32.53;27.50;;;2.20;99.90;;;;;;5026935;28;20030;-84
2022/12/14 00:49:25;;;;;;;29.33;26.27;;;2.20;99.90;;;;;;4995627;28;20467;-84
2022/12/14 00:51:51;;;;;;;25.07;21.67;;;2.20;99.90;;;;;;5010633;28;20038;-84
2022/12/14 00:54:17;;;;;;;31.20;28.00;;;2.20;99.90;;;;;;5027225;28;20027;-83
2022/12/14 00:56:43;;;;;;;29.43;26.43;;;2.20;99.90;;;;;;5025071;28;20030;-83
2022/12/14 00:59:09;;;;;;;23.73;21.20;;;2.20;99.90;;;;;;4997006;28;20048;-84
2022/12/14 01:01:35;;;;;;;33.23;29.97;;;2.30;99.90;;;;;;5013473;28;20022;-84
2022/12/14 01:04:18;;;;;;;28.13;21.67;;;2.20;99.90;;;;;;4997570;28;20038;-85
2022/12/14 01:06:45;;;;;;;19.00;17.07;;;2.30;99.90;;;;;;5015240;28;20375;-83
2022/12/14 01:09:11;;;;;;;25.27;19.40;;;2.20;99.90;;;;;;4997899;28;20037;-85
2022/12/14 01:11:37;;;;;;;33.03;26.07;;;2.10;99.90;;;;;;4981381;28;20506;-83
2022/12/14 01:14:04;;;;;;;40.10;28.53;;;2.00;99.90;;;;;;4997697;28;20355;-84
2022/12/14 01:16:30;;;;;;;40.00;30.83;;;2.00;99.90;;;;;;5014500;28;20041;-84
2022/12/14 01:18:58;;;;;;;37.20;26.47;;;2.00;99.90;;;;;;5013325;28;20017;-85
2022/12/14 01:21:24;;;;;;;44.20;29.93;;;2.00;99.90;;;;;;4958664;28;20042;-84
2022/12/14 01:23:52;;;;;;;44.40;29.83;;;2.00;99.90;;;;;;4990721;28;20023;-84
2022/12/14 01:26:18;;;;;;;47.37;32.87;;;2.00;99.90;;;;;;4973979;28;20039;-84
2022/12/14 01:28:45;;;;;;;43.93;27.03;;;2.00;99.90;;;;;;4974349;28;20042;-84
2022/12/14 01:31:16;;;;;;;21.40;17.43;;;2.00;99.90;;;;;;4973613;28;20031;-84
2022/12/14 01:33:43;;;;;;;49.90;32.25;;;1.90;99.90;;;;;;4990742;28;20046;-84
2022/12/14 01:36:14;;;;;;;40.07;27.33;;;1.90;99.90;;;;;;4974332;28;20035;-84
2022/12/14 01:38:40;;;;;;;37.13;27.42;;;1.90;99.90;;;;;;4989925;28;20390;-84
2022/12/14 01:41:07;;;;;;;41.07;30.87;;;1.80;99.90;;;;;;4990402;28;20027;-84
2022/12/14 01:43:45;;;;;;;48.57;32.90;;;1.90;99.90;;;;;;4974025;28;20039;-83
2022/12/14 01:46:12;;;;;;;54.27;35.53;;;1.90;99.90;;;;;;4989605;28;20039;-83
2022/12/14 01:48:38;;;;;;;52.57;37.33;;;1.90;99.90;;;;;;4990270;28;20027;-84
2022/12/14 01:51:04;;;;;;;51.73;38.47;;;2.00;99.90;;;;;;4973938;28;20047;-83
2022/12/14 01:53:30;;;;;;;40.03;30.87;;;2.00;99.90;;;;;;4990237;28;20042;-83
2022/12/14 01:55:56;;;;;;;32.10;26.20;;;1.90;99.90;;;;;;5005243;28;20037;-84
2022/12/14 01:58:24;;;;;;;50.67;36.77;;;1.90;99.90;;;;;;4996835;28;20044;-84
2022/12/14 02:00:52;;;;;;;49.93;34.83;;;1.90;99.90;;;;;;4979822;28;20507;-84
2022/12/14 02:03:26;;;;;;;39.73;31.07;;;2.10;99.90;;;;;;4996926;28;20030;-84
2022/12/14 02:05:59;;;;;;;46.07;34.20;;;2.00;99.90;;;;;;4997340;28;20049;-83
2022/12/14 02:08:25;;;;;;;50.53;35.70;;;2.00;99.90;;;;;;4997025;28;20026;-83
2022/12/14 02:10:52;;;;;;;55.33;37.07;;;2.10;99.90;;;;;;5012754;28;20041;-84
2022/12/14 02:13:31;;;;;;;34.37;26.20;;;2.10;99.90;;;;;;4996344;28;20045;-84
2022/12/14 02:15:57;;;;;;;44.07;32.90;;;2.00;99.90;;;;;;4996047;28;20026;-84
2022/12/14 02:18:25;;;;;;;40.70;31.93;;;2.00;99.90;;;;;;4980194;28;20030;-84
2022/12/14 02:21:09;;;;;;;43.70;34.17;;;2.00;99.90;;;;;;4980924;28;20025;-83
2022/12/14 02:23:41;;;;;;;34.10;28.77;;;2.00;99.90;;;;;;5025471;28;20053;-83
2022/12/14 02:26:23;;;;;;;46.90;36.53;;;2.00;99.90;;;;;;5025320;28;20042;-84
2022/12/14 02:28:58;;;;;;;47.65;34.33;;;2.00;99.90;;;;;;5025447;28;20030;-84
2022/12/14 02:31:42;;;;;;;42.77;32.20;;;2.10;99.90;;;;;;5024339;28;20471;-83
2022/12/14 02:34:15;;;;;;;49.30;36.07;;;2.10;99.90;;;;;;5025649;28;20030;-84
2022/12/14 02:36:51;;;;;;;46.57;36.40;;;2.10;99.90;;;;;;5025478;28;20030;-84
2022/12/14 02:39:17;;;;;;;41.67;32.80;;;2.00;99.90;;;;;;5025503;28;20027;-83
2022/12/14 02:42:13;;;;;;;42.30;33.33;;;2.00;99.90;;;;;;4993765;28;20034;-83
2022/12/14 02:44:50;;;;;;;41.73;30.30;;;2.00;99.90;;;;;;5008448;28;20042;-83
2022/12/14 02:47:59;;;;;;;40.60;34.20;;;2.10;99.90;;;;;;5024876;28;20034;-84
2022/12/14 02:50:51;;;;;;;46.87;36.60;;;2.00;99.90;;;;;;4992699;28;20042;-84
2022/12/14 02:53:42;;;;;;;42.90;34.37;;;2.10;99.90;;;;;;4997880;28;20132;-84
2022/12/14 02:56:09;;;;;;;30.60;27.67;;;2.10;99.90;;;;;;5006657;28;20029;-84
2022/12/14 02:58:37;;;;;;;26.73;21.57;;;2.00;99.90;;;;;;5033606;28;20044;-83
2022/12/14 03:01:03;;;;;;;28.07;25.00;;;1.90;99.90;;;;;;5032415;28;20047;-83
2022/12/14 03:03:30;;;;;;;43.90;33.67;;;1.90;99.90;;;;;;5016219;28;20513;-84
2022/12/14 03:06:01;;;;;;;43.73;34.63;;;1.90;99.90;;;;;;5006326;28;20037;-84
2022/12/14 03:08:28;;;;;;;31.20;27.83;;;2.00;99.90;;;;;;4988045;28;20030;-84
2022/12/14 03:10:59;;;;;;;46.27;38.60;;;2.00;99.90;;;;;;5004873;28;20042;-84
2022/12/14 03:13:31;;;;;;;31.90;28.52;;;2.00;99.90;;;;;;4979293;28;20486;-84
2022/12/14 03:16:12;;;;;;;45.23;40.13;;;2.00;99.90;;;;;;5012065;28;20034;-84
2022/12/14 03:18:49;;;;;;;36.00;31.98;;;2.10;99.90;;;;;;4984634;28;20030;-84
2022/12/14 03:21:22;;;;;;;37.23;32.27;;;2.10;99.90;;;;;;5012758;28;20754;-84
2022/12/14 03:23:48;;;;;;;39.37;29.23;;;2.00;99.90;;;;;;5032133;28;20033;-84
2022/12/14 03:26:23;;;;;;;38.73;34.37;;;2.00;99.90;;;;;;5011814;28;20048;-85
2022/12/14 03:28:51;;;;;;;41.70;33.97;;;2.00;99.90;;;;;;5028936;28;20029;-83
2022/12/14 03:31:27;;;;;;;42.37;34.27;;;2.00;99.90;;;;;;4959656;28;20043;-84
2022/12/14 03:33:53;;;;;;;43.97;39.30;;;2.10;99.90;;;;;;4987401;28;20027;-85
2022/12/14 03:36:34;;;;;;;40.47;32.33;;;2.20;99.90;;;;;;4996059;28;20038;-83
2022/12/14 03:39:02;;;;;;;40.13;35.90;;;2.20;99.90;;;;;;4988569;28;20031;-83
2022/12/14 03:41:56;;;;;;;42.77;36.33;;;2.10;99.90;;;;;;4972420;28;20480;-84
2022/12/14 03:44:41;;;;;;;43.63;36.93;;;2.10;99.90;;;;;;4974305;28;20026;-84
2022/12/14 03:47:08;;;;;;;43.00;38.53;;;2.20;99.90;;;;;;4971833;28;20046;-84
2022/12/14 03:50:00;;;;;;;32.70;29.20;;;2.30;99.90;;;;;;4973449;28;20023;-83
2022/12/14 03:52:34;;;;;;;35.10;31.40;;;2.40;99.90;;;;;;4974886;28;20046;-84
2022/12/14 03:55:02;;;;;;;38.30;34.20;;;2.40;99.90;;;;;;4972349;28;20511;-83
2022/12/14 03:57:43;;;;;;;38.30;34.47;;;2.40;99.90;;;;;;5012069;28;20026;-83
2022/12/14 04:00:11;;;;;;;39.22;33.45;;;2.30;99.90;;;;;;5011931;28;20030;-83
2022/12/14 04:03:12;;;;;;;41.43;35.33;;;2.30;99.90;;;;;;4995127;28;20026;-83
2022/12/14 04:05:48;;;;;;;35.88;31.98;;;2.30;99.90;;;;;;5012632;28;20060;-83
2022/12/14 04:08:27;;;;;;;38.47;32.73;;;2.30;99.90;;;;;;5013521;28;20022;-83
2022/12/14 04:19:27;;;;;;;32.50;29.20;;;2.40;99.90;;;;;;5017247;28;20378;-83
2022/12/14 04:22:00;;;;;;;34.10;30.77;;;2.30;99.90;;;;;;4994884;28;20057;-82
2022/12/14 04:27:53;;;;;;;25.63;23.03;;;2.20;99.90;;;;;;5003144;28;20053;-82
2022/12/14 04:30:19;;;;;;;31.10;27.87;;;2.20;99.90;;;;;;4993085;28;20026;-82
2022/12/14 04:32:51;;;;;;;36.03;32.27;;;2.20;99.90;;;;;;4993433;28;20046;-82
2022/12/14 04:35:25;;;;;;;28.67;25.67;;;2.20;99.90;;;;;;4995851;28;20041;-82
2022/12/14 04:38:17;;;;;;;34.77;31.27;;;2.20;99.90;;;;;;4996646;28;20033;-82
2022/12/14 04:40:54;;;;;;;35.10;31.33;;;2.30;99.90;;;;;;4998979;28;20292;-82
2022/12/14 04:43:23;;;;;;;23.57;21.07;;;2.40;99.90;;;;;;4994785;28;20400;-82
2022/12/14 04:46:01;;;;;;;111.80;34.07;;;2.30;99.90;;;;;;5027055;28;20038;-82
2022/12/14 04:48:49;;;;;;;327.17;51.30;;;2.30;99.90;;;;;;5011214;28;20399;-82
2022/12/14 04:51:35;;;;;;;30.03;26.90;;;2.50;99.90;;;;;;4997229;28;20045;-82
2022/12/14 04:54:09;;;;;;;28.97;26.13;;;2.60;99.90;;;;;;5027458;28;20030;-82
2022/12/14 04:56:59;;;;;;;28.57;25.70;;;2.40;99.90;;;;;;5040200;28;20026;-82
2022/12/14 04:59:25;;;;;;;26.93;24.17;;;2.30;99.90;;;;;;5000909;28;20038;-82
2022/12/14 05:02:06;;;;;;;28.37;25.60;;;2.30;99.90;;;;;;4997447;28;20034;-82
2022/12/14 05:05:05;;;;;;;25.80;23.17;;;2.30;99.90;;;;;;4998414;28;20029;-82
2022/12/14 05:07:39;;;;;;;25.10;22.77;;;2.30;99.90;;;;;;5015692;28;20045;-82
2022/12/14 05:10:10;;;;;;;43.63;26.53;;;2.30;99.90;;;;;;5015674;28;20046;-82
2022/12/14 05:12:43;;;;;;;23.15;21.13;;;2.30;99.90;;;;;;4999101;28;20048;-82
2022/12/14 05:15:22;;;;;;;26.57;24.37;;;2.30;99.90;;;;;;5015523;28;20049;-82
2022/12/14 05:17:48;;;;;;;25.40;23.03;;;2.30;99.90;;;;;;5016079;28;20042;-82
2022/12/14 05:20:16;;;;;;;27.93;25.13;;;2.30;99.90;;;;;;4985723;28;20049;-82
2022/12/14 05:22:42;;;;;;;26.10;23.73;;;2.30;99.90;;;;;;5009297;28;20481;-83
2022/12/14 05:25:08;;;;;;;25.47;22.90;;;2.30;99.90;;;;;;4992601;28;20069;-82
2022/12/14 05:27:34;;;;;;;26.20;23.63;;;2.40;99.90;;;;;;5009199;28;20058;-82
2022/12/14 05:30:00;;;;;;;24.43;22.10;;;2.40;99.90;;;;;;4993094;28;20034;-82
2022/12/14 05:32:29;;;;;;;28.40;25.70;;;2.50;99.90;;;;;;4992167;28;20031;-82
2022/12/14 05:34:55;;;;;;;26.67;24.17;;;2.50;99.90;;;;;;5008638;28;20470;-82
2022/12/14 05:37:21;;;;;;;26.50;23.77;;;2.50;99.90;;;;;;5008668;28;20045;-82
2022/12/14 05:39:48;;;;;;;28.90;26.17;;;2.60;99.90;;;;;;4991613;28;20038;-82
2022/12/14 05:42:14;;;;;;;28.33;25.63;;;2.60;99.90;;;;;;5008458;28;20423;-82
2022/12/14 05:44:40;;;;;;;30.10;27.43;;;2.60;99.90;;;;;;4982109;28;20046;-82
2022/12/14 05:47:06;;;;;;;27.83;25.00;;;2.60;99.90;;;;;;4989798;28;20030;-82
2022/12/14 05:49:32;;;;;;;25.37;23.17;;;2.60;99.90;;;;;;4990456;28;20034;-82
2022/12/14 05:51:58;;;;;;;28.60;25.90;;;2.50;99.90;;;;;;4990233;28;20022;-83
2022/12/14 05:54:24;;;;;;;26.70;24.07;;;2.40;99.90;;;;;;4990164;28;20039;-82
2022/12/14 05:56:51;;;;;;;29.17;26.37;;;2.40;99.90;;;;;;4996873;28;20475;-82
2022/12/14 05:59:17;;;;;;;30.27;27.50;;;2.60;99.90;;;;;;4980966;28;20368;-82
2022/12/14 06:01:44;;;;;;;26.10;23.70;;;2.70;99.90;;;;;;4996210;28;20515;-83
2022/12/14 06:04:11;;;;;;;30.50;27.63;;;2.60;99.90;;;;;;5012883;28;20030;-83
2022/12/14 06:06:37;;;;;;;28.20;25.70;;;2.70;99.90;;;;;;4996743;28;20414;-82
2022/12/14 06:09:07;;;;;;;31.20;28.37;;;2.60;99.90;;;;;;5012530;28;20525;-82
2022/12/14 06:11:38;;;;;;;27.45;24.60;;;2.60;99.90;;;;;;5012919;28;20029;-82
2022/12/14 06:14:05;;;;;;;28.40;25.77;;;2.50;99.90;;;;;;4980677;28;20065;-82
2022/12/14 06:16:31;;;;;;;26.60;24.13;;;2.50;99.90;;;;;;5012124;28;20037;-82
2022/12/14 06:18:58;;;;;;;27.70;24.80;;;2.40;99.90;;;;;;4996216;28;20468;-82
2022/12/14 06:21:34;;;;;;;28.40;25.67;;;2.40;99.90;;;;;;4957647;28;20042;-82
2022/12/14 06:24:01;;;;;;;28.20;25.37;;;2.50;99.90;;;;;;4973597;28;20039;-82
2022/12/14 06:26:28;;;;;;;29.73;26.83;;;2.50;99.90;;;;;;4989493;28;20046;-82
2022/12/14 06:28:54;;;;;;;29.90;27.00;;;2.60;99.90;;;;;;4973199;28;20050;-82
2022/12/14 06:31:25;;;;;;;31.63;28.63;;;2.70;99.90;;;;;;4989010;28;20038;-82
2022/12/14 06:33:52;;;;;;;27.25;24.63;;;2.70;99.90;;;;;;4973136;28;20039;-82
2022/12/14 06:36:18;;;;;;;30.53;27.73;;;2.70;99.90;;;;;;4972636;28;20045;-83
2022/12/14 06:38:45;;;;;;;27.70;25.03;;;2.80;99.90;;;;;;4989686;28;20029;-82
2022/12/14 06:41:11;;;;;;;29.10;26.30;;;2.80;99.90;;;;;;4989284;28;20385;-82
2022/12/14 06:43:37;;;;;;;31.17;27.97;;;2.70;99.90;;;;;;4972888;28;20035;-83
2022/12/14 06:46:11;;;;;;;28.60;25.93;;;2.70;99.90;;;;;;4972524;28;20043;-82
2022/12/14 06:48:37;;;;;;;31.27;28.27;;;2.70;99.90;;;;;;4972949;28;20043;-83
2022/12/14 06:51:04;;;;;;;29.57;26.87;;;2.80;99.90;;;;;;4988791;28;20388;-82
2022/12/14 06:53:30;;;;;;;29.10;26.50;;;2.90;99.90;;;;;;4973039;28;20050;-83
2022/12/14 06:56:12;;;;;;;28.87;26.10;;;2.80;99.90;;;;;;4987814;28;20050;-82
2022/12/14 06:58:38;;;;;;;29.23;26.33;;;2.70;99.90;;;;;;4995652;28;20044;-83
2022/12/14 07:01:06;;;;;;;31.23;28.33;;;2.70;99.90;;;;;;4995161;28;20030;-82
2022/12/14 07:03:33;;;;;;;28.80;26.07;;;2.70;99.90;;;;;;4995722;28;20033;-82
2022/12/14 07:05:59;;;;;;;28.17;25.27;;;2.90;99.90;;;;;;4995114;28;20038;-82
2022/12/14 07:08:26;;;;;;;26.53;23.77;;;2.90;99.90;;;;;;4995511;28;20037;-82
2022/12/14 07:10:52;;;;;;;24.97;22.83;;;2.90;99.90;;;;;;5011792;28;20471;-82
2022/12/14 07:13:20;;;;;;;29.80;26.90;;;2.70;99.90;;;;;;4995453;28;20037;-82
2022/12/14 07:15:52;;;;;;;30.37;27.47;;;2.70;99.90;;;;;;5011200;28;20034;-82
2022/12/14 07:18:19;;;;;;;31.63;28.47;;;2.80;99.90;;;;;;4979307;28;20041;-83
2022/12/14 07:21:11;;;;;;;30.30;27.20;;;2.90;99.90;;;;;;4997973;28;20369;-82
2022/12/14 07:23:38;;;;;;;30.10;27.23;;;2.80;99.90;;;;;;5023942;28;20030;-83
2022/12/14 07:26:06;;;;;;;29.87;26.77;;;2.70;99.90;;;;;;5024477;28;20381;-82
2022/12/14 07:28:34;;;;;;;30.40;27.23;;;2.70;99.90;;;;;;5024459;28;20480;-82
2022/12/14 07:31:00;;;;;;;30.30;27.27;;;2.60;99.90;;;;;;5023926;28;20049;-82
2022/12/14 07:33:26;;;;;;;30.03;26.93;;;2.60;99.90;;;;;;4993003;28;20408;-82
2022/12/14 07:36:09;;;;;;;31.80;28.23;;;2.60;99.90;;;;;;5007896;28;20056;-82
2022/12/14 07:38:36;;;;;;;30.97;27.77;;;2.60;99.90;;;;;;5024610;28;20034;-82
2022/12/14 07:41:03;;;;;;;27.80;24.90;;;2.70;99.90;;;;;;5024499;28;20395;-83
2022/12/14 07:43:29;;;;;;;27.23;24.67;;;2.70;99.90;;;;;;5024644;28;20499;-81
2022/12/14 07:46:00;;;;;;;29.17;26.47;;;2.60;99.90;;;;;;5007282;28;20057;-83
2022/12/14 07:48:26;;;;;;;28.00;25.45;;;2.60;99.90;;;;;;5024276;28;20027;-82
2022/12/14 07:50:53;;;;;;;29.60;26.57;;;2.60;99.90;;;;;;5024452;28;20032;-82
2022/12/14 07:53:19;;;;;;;30.30;27.37;;;2.60;99.90;;;;;;5024390;28;20034;-82
2022/12/14 07:55:45;;;;;;;30.23;27.13;;;2.60;99.90;;;;;;4998794;28;20033;-82
2022/12/14 07:58:12;;;;;;;29.03;26.13;;;2.60;99.90;;;;;;4979173;28;20045;-83
2022/12/14 08:00:38;;;;;;;28.63;25.70;;;2.60;99.90;;;;;;5010717;28;20026;-83
2022/12/14 08:03:04;;;;;;;29.00;26.10;;;2.60;99.90;;;;;;4994843;28;20041;-83
2022/12/14 08:05:30;;;;;;;30.30;27.20;;;2.70;99.90;;;;;;4995028;28;20471;-82
2022/12/14 08:07:56;;;;;;;28.40;25.37;;;2.70;99.90;;;;;;4995314;28;20030;-83
2022/12/14 08:10:22;;;;;;;29.23;26.17;;;2.60;99.90;;;;;;4998850;28;20391;-82
2022/12/14 08:12:51;;;;;;;29.17;26.13;;;2.70;99.90;;;;;;4998789;28;20034;-83
2022/12/14 08:15:17;;;;;;;28.17;25.47;;;2.70;99.90;;;;;;5014632;28;20030;-83
2022/12/14 08:17:44;;;;;;;25.63;23.13;;;2.70;99.90;;;;;;4998482;28;20038;-83
2022/12/14 08:20:10;;;;;;;28.67;25.90;;;2.70;99.90;;;;;;4988551;28;20025;-82
2022/12/14 08:22:36;;;;;;;26.43;24.00;;;2.70;99.90;;;;;;5012159;28;20057;-83
2022/12/14 08:25:02;;;;;;;25.43;23.20;;;2.60;99.90;;;;;;5011386;28;20027;-83
2022/12/14 08:27:31;;;;;;;26.50;23.67;;;2.70;99.90;;;;;;4995189;28;20076;-83
2022/12/14 08:29:57;;;;;;;24.53;22.43;;;2.60;99.90;;;;;;5027851;28;20456;-83
2022/12/14 08:32:23;;;;;;;24.00;21.83;;;2.70;99.90;;;;;;5026815;28;20042;-82
2022/12/14 08:34:50;;;;;;;15.87;14.60;;;2.70;99.90;;;;;;5011884;28;20403;-81
2022/12/14 08:37:16;;;;;;;28.27;25.77;;;2.60;99.90;;;;;;5027679;28;20479;-83
2022/12/14 08:39:42;;;;;;;24.40;22.30;;;2.60;99.90;;;;;;5027627;28;20027;-83
2022/12/14 08:42:08;;;;;;;27.47;24.93;;;2.60;99.90;;;;;;4994747;28;20065;-83
2022/12/14 08:44:34;;;;;;;27.60;25.07;;;2.70;99.90;;;;;;5011290;28;20618;-82
2022/12/14 08:47:00;;;;;;;25.73;23.53;;;2.70;99.90;;;;;;4993780;28;20043;-83
2022/12/14 08:49:26;;;;;;;24.17;22.03;;;2.70;99.90;;;;;;5027494;28;20395;-83
2022/12/14 08:51:52;;;;;;;26.67;24.47;;;2.70;99.90;;;;;;5027161;28;20034;-83
2022/12/14 08:54:18;;;;;;;26.93;24.33;;;2.70;99.90;;;;;;5010872;28;20033;-83
2022/12/14 08:56:45;;;;;;;30.13;26.57;;;2.70;99.90;;;;;;5009340;28;20042;-83
2022/12/14 08:59:11;;;;;;;26.57;24.20;;;2.70;99.90;;;;;;4982072;28;20053;-83
2022/12/14 09:01:37;;;;;;;27.37;24.67;;;2.70;99.90;;;;;;4997022;28;20026;-83
2022/12/14 09:04:04;;;;;;;26.07;23.40;;;2.80;99.90;;;;;;4997961;28;20038;-83
2022/12/14 09:06:32;;;;;;;26.27;23.70;;;2.70;99.90;;;;;;4981654;28;20045;-84
2022/12/14 09:08:58;;;;;;;23.40;21.47;;;2.80;99.90;;;;;;4981740;28;20064;-83
2022/12/14 09:11:24;;;;;;;24.23;21.83;;;2.80;99.90;;;;;;4997765;28;20034;-82
2022/12/14 09:13:53;;;;;;;20.43;18.80;;;2.80;99.90;;;;;;4997643;28;20033;-83
2022/12/14 09:16:20;;;;;;;17.27;15.63;;;2.70;99.90;;;;;;4996706;28;20041;-82
2022/12/14 09:18:47;;;;;;;28.40;25.97;;;2.70;99.90;;;;;;4997665;28;20029;-83
2022/12/14 09:21:13;;;;;;;31.37;28.70;;;2.70;99.90;;;;;;4978545;28;20518;-83
2022/12/14 09:23:39;;;;;;;22.10;20.20;;;2.80;99.90;;;;;;4993985;28;20038;-83
2022/12/14 09:26:09;;;;;;;21.07;19.17;;;2.80;99.90;;;;;;5010439;28;20511;-82
2022/12/14 09:28:36;;;;;;;28.83;26.33;;;2.70;99.90;;;;;;5010084;28;20029;-83
2022/12/14 09:31:04;;;;;;;25.13;23.07;;;2.80;99.90;;;;;;5025872;28;20030;-83
2022/12/14 09:33:30;;;;;;;29.37;26.80;;;2.80;99.90;;;;;;5026713;28;20488;-82
2022/12/14 09:36:01;;;;;;;31.87;28.47;;;2.80;99.90;;;;;;5026544;28;20387;-83
2022/12/14 09:38:29;;;;;;;28.95;26.30;;;2.80;99.90;;;;;;5010357;28;20511;-83
2022/12/14 09:40:56;;;;;;;29.83;27.33;;;2.90;99.90;;;;;;5026454;28;20037;-82
2022/12/14 09:43:34;;;;;;;31.37;28.60;;;2.90;99.90;;;;;;5026630;28;20034;-83
2022/12/14 09:46:36;;;;;;;30.70;27.83;;;3.00;99.90;;;;;;4993984;28;20030;-82
2022/12/14 09:49:02;;;;;;;23.73;21.87;;;3.10;99.90;;;;;;4993575;28;20034;-83
2022/12/14 09:51:33;;;;;;;29.27;26.77;;;3.00;99.90;;;;;;5026346;28;20022;-83
2022/12/14 09:54:06;;;;;;;13.75;12.95;;;2.90;99.90;;;;;;5026112;28;20360;-82
2022/12/14 09:56:32;;;;;;;28.30;26.10;;;2.80;99.90;;;;;;5038873;28;20030;-82
2022/12/14 09:58:59;;;;;;;27.80;25.40;;;2.90;99.90;;;;;;4996518;28;20034;-83
2022/12/14 10:01:49;;;;;;;29.30;26.60;;;2.90;99.90;;;;;;4996158;28;20026;-83
2022/12/14 10:04:30;;;;;;;29.05;26.55;;;2.90;99.90;;;;;;5012503;28;20038;-83
2022/12/14 10:07:26;;;;;;;22.33;20.63;;;3.00;99.90;;;;;;5012798;28;20037;-83
2022/12/14 10:10:33;;;;;;;27.53;25.23;;;2.90;99.90;;;;;;5014858;28;20057;-83
2022/12/14 10:13:04;;;;;;;22.33;20.43;;;2.90;99.90;;;;;;4972504;28;20047;-83
2022/12/14 10:15:38;;;;;;;;;;;3.00;99.90;;;;;;4988421;28;20037;-83
2022/12/14 10:18:25;;;;;;;26.07;24.03;;;2.90;99.90;;;;;;4988500;28;19929;-83
2022/12/14 10:21:10;;;;;;;28.27;25.97;;;2.90;99.90;;;;;;4957183;28;20078;-83
2022/12/14 10:23:36;;;;;;;30.37;27.77;;;2.90;99.90;;;;;;4968489;28;20261;-83
2022/12/14 10:26:06;;;;;;;31.50;28.70;;;2.90;99.90;;;;;;4968928;28;20529;-83
2022/12/14 10:28:32;;;;;;;29.40;26.73;;;3.00;99.90;;;;;;4968685;28;20043;-83
2022/12/14 10:30:58;;;;;;;22.83;21.07;;;3.00;99.90;;;;;;4968755;28;20421;-83
2022/12/14 10:33:28;;;;;;;31.23;28.63;;;3.00;99.90;;;;;;4952317;29;20039;-83
2022/12/14 10:36:03;;;;;;;19.17;17.13;;;3.00;99.90;;;;;;4968948;28;20055;-83
2022/12/14 10:39:02;;;;;;;23.43;21.33;;;3.00;99.90;;;;;;4969468;28;20088;-82
2022/12/14 10:41:36;;;;;;;24.43;22.30;;;3.00;99.90;;;;;;4937273;29;20038;-83
2022/12/14 10:44:20;;;;;;;30.87;28.37;;;3.00;99.90;;;;;;4952693;29;20027;-83
2022/12/14 10:47:42;;;;;;;32.27;29.37;;;3.00;99.90;;;;;;4943296;28;20052;-83
2022/12/14 10:50:17;;;;;;;27.83;25.23;;;3.10;99.90;;;;;;4955158;28;20488;-83
2022/12/14 10:52:44;;;;;;;30.87;28.07;;;3.10;99.90;;;;;;4955903;28;20451;-83
2022/12/14 10:55:33;;;;;;;34.03;30.87;;;3.20;99.90;;;;;;4974311;28;20042;-82
2022/12/14 10:58:00;;;;;;;32.83;29.83;;;3.20;99.90;;;;;;4993872;28;20041;-83
2022/12/14 11:00:26;;;;;;;31.17;28.60;;;3.30;99.90;;;;;;4994047;28;20038;-83
2022/12/14 11:02:56;;;;;;;24.80;22.20;;;3.20;99.90;;;;;;4978618;28;20026;-83
2022/12/14 11:05:36;;;;;;;20.13;18.57;;;3.20;99.90;;;;;;4962277;28;20045;-83
2022/12/14 11:08:05;;;;;;;21.20;19.37;;;3.30;99.90;;;;;;4978509;28;20049;-83
2022/12/14 11:10:33;;;;;;;18.00;16.67;;;3.30;99.90;;;;;;4994621;28;20049;-82
2022/12/14 11:13:03;;;;;;;27.07;22.97;;;3.20;99.90;;;;;;4962175;28;20055;-83
2022/12/14 11:15:34;;;;;;;31.92;29.05;;;3.20;99.90;;;;;;4994101;28;20045;-82
2022/12/14 11:18:05;;;;;;;23.67;21.80;;;3.30;99.90;;;;;;4994407;28;20098;-83
2022/12/14 11:20:31;;;;;;;;;;;3.40;99.90;;;;;;4963057;28;20046;-82
2022/12/14 11:23:15;;;;;;;17.47;16.37;;;3.30;99.90;;;;;;4971826;28;19910;-83
2022/12/14 11:25:43;;;;;;;20.00;18.50;;;3.30;99.90;;;;;;4972852;28;20035;-79
2022/12/14 11:28:16;;;;;;;23.27;21.20;;;3.30;99.90;;;;;;4988747;28;20046;-82
2022/12/14 11:31:09;;;;;;;21.70;19.70;;;3.30;99.90;;;;;;4973492;28;20392;-82
2022/12/14 11:33:43;;;;;;;22.27;20.40;;;3.30;99.90;;;;;;4988991;28;20416;-82
2022/12/14 11:36:21;;;;;;;23.90;22.10;;;3.30;99.90;;;;;;4973060;28;20035;-82
2022/12/14 11:39:02;;;;;;;25.83;23.83;;;3.30;99.90;;;;;;4972981;28;20503;-83
2022/12/14 11:41:36;;;;;;;23.40;21.23;;;3.30;99.90;;;;;;4972578;28;20035;-82
2022/12/14 11:44:14;;;;;;;22.97;20.90;;;3.30;99.90;;;;;;4975234;28;20632;-82
2022/12/14 11:46:42;;;;;;;22.90;20.70;;;3.40;99.90;;;;;;4992276;28;20042;-82
2022/12/14 11:49:22;;;;;;;23.33;21.23;;;3.40;99.90;;;;;;4992536;28;20043;-82
2022/12/14 11:52:05;;;;;;;24.03;22.20;;;3.40;99.90;;;;;;4992392;28;20050;-82
2022/12/14 11:54:35;;;;;;;24.50;22.00;;;3.40;99.90;;;;;;4992792;28;20408;-82
2022/12/14 11:57:15;;;;;;;22.48;20.73;;;3.40;99.90;;;;;;4996336;28;20038;-83
2022/12/14 11:59:52;;;;;;;21.10;19.23;;;3.40;99.90;;;;;;4998952;28;20038;-82
2022/12/14 12:02:22;;;;;;;24.90;22.53;;;3.40;99.90;;;;;;5014798;28;20034;-82
2022/12/14 12:04:52;;;;;;;25.58;23.20;;;3.40;99.90;;;;;;5015417;28;20034;-82
2022/12/14 12:07:40;;;;;;;24.93;22.97;;;3.40;99.90;;;;;;4999117;28;20499;-82
2022/12/14 12:10:27;;;;;;;23.93;21.90;;;3.30;99.90;;;;;;4998663;28;20422;-83
2022/12/14 12:12:55;;;;;;;26.33;22.03;;;3.40;99.90;;;;;;4998385;28;20030;-83
2022/12/14 12:15:33;;;;;;;25.67;21.17;;;3.40;99.90;;;;;;4982397;28;20398;-82
2022/12/14 12:18:03;;;;;;;24.90;22.40;;;3.40;99.90;;;;;;5000235;28;20037;-82
2022/12/14 12:20:38;;;;;;;26.30;24.03;;;3.40;99.90;;;;;;5002211;28;20042;-83
2022/12/14 12:23:18;;;;;;;24.47;21.87;;;3.40;99.90;;;;;;5011451;28;20034;-83
2022/12/14 12:25:44;;;;;;;27.47;24.50;;;3.40;99.90;;;;;;5011140;28;20030;-83
2022/12/14 12:28:21;;;;;;;26.07;23.33;;;3.50;99.90;;;;;;5027751;28;20061;-82
2022/12/14 12:30:50;;;;;;;25.60;23.27;;;3.50;99.90;;;;;;5027209;28;20031;-82
2022/12/14 12:33:38;;;;;;;27.83;24.93;;;3.50;99.90;;;;;;5027842;28;20029;-82
2022/12/14 12:36:04;;;;;;;29.10;26.00;;;3.50;99.90;;;;;;5011550;28;20039;-82
2022/12/14 12:38:46;;;;;;;26.50;24.10;;;3.50;99.90;;;;;;5010868;28;20038;-83
2022/12/14 12:41:41;;;;;;;34.23;28.90;;;3.60;99.90;;;;;;5010967;28;20395;-82
2022/12/14 12:44:10;;;;;;;29.47;26.57;;;3.60;99.90;;;;;;4995350;28;20031;-83
2022/12/14 12:46:44;;;;;;;29.20;26.30;;;3.60;99.90;;;;;;4995465;28;20038;-83
2022/12/14 12:49:11;;;;;;;28.43;25.47;;;3.70;99.90;;;;;;5010576;28;20523;-82
2022/12/14 12:51:46;;;;;;;30.77;27.57;;;3.60;99.90;;;;;;5011045;28;20045;-83
2022/12/14 12:54:36;;;;;;;25.53;22.83;;;3.70;99.90;;;;;;5026909;28;20491;-82
2022/12/14 12:57:03;;;;;;;29.60;26.47;;;3.60;99.90;;;;;;5013789;28;20041;-82
2022/12/14 12:59:29;;;;;;;28.67;25.57;;;3.70;99.90;;;;;;4998012;28;20033;-83
2022/12/14 13:02:32;;;;;;;31.63;28.43;;;3.70;99.90;;;;;;5013820;28;20037;-83
2022/12/14 13:05:03;;;;;;;31.77;28.60;;;3.80;99.90;;;;;;4983790;28;20041;-83
2022/12/14 13:08:01;;;;;;;28.90;25.97;;;3.80;99.90;;;;;;4997617;28;20549;-82
2022/12/14 13:10:30;;;;;;;29.27;26.47;;;3.70;99.90;;;;;;5013538;28;20037;-83
2022/12/14 13:13:14;;;;;;;31.03;27.67;;;3.70;99.90;;;;;;5013804;28;20026;-83